Time,TemperatureF,DewpointF,PressureIn,WindDirection,WindDirectionDegrees,WindSpeedMPH,WindSpeedGustMPH,Humidity,HourlyPrecipIn,Conditions,Clouds,dailyrainin,SoftwareType,DateUTC
2013-06-25 00:40:00,67.1,62.8,29.79,South,180,0.0,0.0,86,0.00,,,0.00,WUHU21623XXSP,2013-06-25 04:40:00,
2013-06-25 01:40:00,67.3,63.0,29.79,SSW,203,0.0,0.0,86,0.00,,,0.00,WUHU21623XXSP,2013-06-25 05:40:00,
2013-06-25 02:40:00,67.6,63.6,29.79,SSW,203,0.0,0.0,87,0.00,,,0.00,WUHU21623XXSP,2013-06-25 06:40:00,
2013-06-25 03:40:00,67.6,63.6,29.77,SSW,203,0.7,0.7,87,0.00,,,0.00,WUHU21623XXSP,2013-06-25 07:40:00,
2013-06-25 04:40:00,68.5,63.8,29.76,South,180,1.1,1.1,85,0.00,,,0.00,WUHU21623XXSP,2013-06-25 08:40:00,
2013-06-25 05:30:00,68.5,65.1,29.78,NW,315,0.9,0.9,89,0.00,,,0.00,WUHU21623XXSP,2013-06-25 09:30:00,
2013-06-25 05:35:00,68.7,65.3,29.82,NW,315,3.8,3.8,89,0.02,,,0.02,WUHU21623XXSP,2013-06-25 09:35:00,
2013-06-25 05:40:00,68.7,65.3,29.83,NW,310,1.3,3.8,89,0.06,,,0.06,WUHU21623XXSP,2013-06-25 09:40:00,
2013-06-25 05:45:00,68.4,65.0,29.80,North,5,1.4,2.5,89,0.10,,,0.10,WUHU21623XXSP,2013-06-25 09:45:00,
2013-06-25 05:50:00,67.8,64.8,29.78,NNW,337,0.0,2.0,88,0.10,,,0.10,WUHU21623XXSP,2013-06-25 09:50:00,
2013-06-25 05:55:00,67.6,63.9,29.77,NE,45,0.0,0.0,88,0.10,,,0.10,WUHU21623XXSP,2013-06-25 09:55:00,
2013-06-25 06:00:00,67.3,63.6,29.78,SSE,157,0.0,0.0,88,0.10,,,0.10,WUHU21623XXSP,2013-06-25 10:00:00,
2013-06-25 06:05:00,67.1,63.4,29.79,ESE,112,0.0,0.0,88,0.10,,,0.10,WUHU21623XXSP,2013-06-25 10:05:00,
2013-06-25 06:10:00,66.7,63.4,29.80,ESE,112,0.0,0.0,89,0.10,,,0.10,WUHU21623XXSP,2013-06-25 10:10:00,
2013-06-25 06:15:00,66.7,63.4,29.81,ESE,112,0.0,0.0,89,0.10,,,0.10,WUHU21623XXSP,2013-06-25 10:15:00,
2013-06-25 06:20:00,66.6,63.2,29.81,ESE,112,0.0,0.0,89,0.10,,,0.10,WUHU21623XXSP,2013-06-25 10:20:00,
2013-06-25 06:25:00,66.4,63.0,29.81,SE,135,0.0,0.0,89,0.10,,,0.10,WUHU21623XXSP,2013-06-25 10:25:00,
2013-06-25 06:30:00,66.2,62.8,29.81,SE,135,0.0,0.0,89,0.10,,,0.10,WUHU21623XXSP,2013-06-25 10:30:00,
2013-06-25 06:35:00,66.0,63.0,29.81,WSW,247,0.0,0.0,90,0.08,,,0.10,WUHU21623XXSP,2013-06-25 10:35:00,
2013-06-25 06:40:00,66.0,63.0,29.82,NW,315,0.0,0.0,90,0.02,,,0.10,WUHU21623XXSP,2013-06-25 10:40:00,
2013-06-25 06:45:00,66.0,63.0,29.82,NW,315,0.0,0.0,90,0.00,,,0.10,WUHU21623XXSP,2013-06-25 10:45:00,
2013-06-25 06:50:00,66.0,63.0,29.81,NW,315,0.0,0.0,90,0.00,,,0.10,WUHU21623XXSP,2013-06-25 10:50:00,
2013-06-25 06:55:00,66.0,63.0,29.81,West,270,0.0,0.0,90,0.00,,,0.10,WUHU21623XXSP,2013-06-25 10:55:00,
2013-06-25 07:00:00,66.0,63.0,29.81,West,270,0.0,0.0,90,0.00,,,0.10,WUHU21623XXSP,2013-06-25 11:00:00,
2013-06-25 07:05:00,66.0,63.0,29.81,North,0,0.0,0.0,90,0.00,,,0.10,WUHU21623XXSP,2013-06-25 11:05:00,
2013-06-25 07:10:00,66.0,63.0,29.80,North,0,0.0,0.0,90,0.00,,,0.10,WUHU21623XXSP,2013-06-25 11:10:00,
2013-06-25 07:15:00,66.0,63.0,29.80,North,0,0.0,0.0,90,0.00,,,0.10,WUHU21623XXSP,2013-06-25 11:15:00,
2013-06-25 07:20:00,66.0,63.0,29.80,North,0,0.0,0.0,90,0.00,,,0.10,WUHU21623XXSP,2013-06-25 11:20:00,
2013-06-25 07:25:00,66.0,63.0,29.80,North,0,0.0,0.0,90,0.00,,,0.10,WUHU21623XXSP,2013-06-25 11:25:00,
2013-06-25 07:30:00,66.0,63.0,29.79,North,0,0.0,0.0,90,0.00,,,0.10,WUHU21623XXSP,2013-06-25 11:30:00,
2013-06-25 07:35:00,66.0,63.0,29.80,North,0,0.0,0.0,90,0.00,,,0.10,WUHU21623XXSP,2013-06-25 11:35:00,
2013-06-25 07:40:00,66.0,63.0,29.81,North,0,0.0,0.0,90,0.02,,,0.12,WUHU21623XXSP,2013-06-25 11:40:00,
2013-06-25 07:45:00,66.0,63.3,29.83,NNW,337,0.0,0.0,91,0.07,,,0.17,WUHU21623XXSP,2013-06-25 11:45:00,
2013-06-25 07:50:00,66.0,63.3,29.83,North,0,0.0,0.0,91,0.21,,,0.31,WUHU21623XXSP,2013-06-25 11:50:00,
2013-06-25 07:55:00,66.0,63.3,29.79,ENE,67,0.0,1.6,91,0.47,,,0.57,WUHU21623XXSP,2013-06-25 11:55:00,
2013-06-25 08:00:00,66.0,63.3,29.81,North,0,0.0,1.6,91,0.53,,,0.63,WUHU21623XXSP,2013-06-25 12:00:00,
2013-06-25 08:05:00,66.0,63.3,29.81,North,0,0.9,0.9,91,0.56,,,0.66,WUHU21623XXSP,2013-06-25 12:05:00,
2013-06-25 08:10:00,66.0,63.3,29.81,NE,45,0.0,2.5,91,0.58,,,0.68,WUHU21623XXSP,2013-06-25 12:10:00,
2013-06-25 08:15:00,66.0,63.3,29.81,NNW,337,0.0,2.5,91,0.58,,,0.68,WUHU21623XXSP,2013-06-25 12:15:00,
2013-06-25 08:20:00,66.0,63.6,29.81,NNE,22,0.0,0.0,92,0.58,,,0.68,WUHU21623XXSP,2013-06-25 12:20:00,
2013-06-25 08:27:00,66.0,63.3,29.81,NNE,22,0.0,0.0,91,0.58,,,0.68,WUHU21623XXSP,2013-06-25 12:27:00,
2013-06-25 08:32:00,66.0,63.3,29.82,NNE,22,0.0,0.0,91,0.58,,,0.68,WUHU21623XXSP,2013-06-25 12:32:00,
2013-06-25 08:37:00,66.0,63.3,29.82,NNE,22,0.0,0.0,91,0.58,,,0.68,WUHU21623XXSP,2013-06-25 12:37:00,
2013-06-25 08:42:00,66.0,63.3,29.81,NNE,22,0.0,0.0,91,0.58,,,0.70,WUHU21623XXSP,2013-06-25 12:42:00,
2013-06-25 08:47:00,66.0,63.6,29.81,NNE,22,0.0,0.0,92,0.43,,,0.70,WUHU21623XXSP,2013-06-25 12:47:00,
2013-06-25 08:52:00,66.0,63.6,29.80,NNE,22,0.0,0.0,92,0.25,,,0.70,WUHU21623XXSP,2013-06-25 12:52:00,
2013-06-25 08:57:00,66.0,63.6,29.80,NNE,22,0.0,0.0,92,0.09,,,0.70,WUHU21623XXSP,2013-06-25 12:57:00,
2013-06-25 09:02:00,66.0,63.6,29.80,ENE,67,0.0,0.9,92,0.07,,,0.70,WUHU21623XXSP,2013-06-25 13:02:00,
2013-06-25 09:07:00,66.0,63.6,29.80,NNW,337,0.0,0.9,92,0.04,,,0.70,WUHU21623XXSP,2013-06-25 13:07:00,
2013-06-25 09:12:00,66.2,63.8,29.79,NNW,337,0.0,0.0,92,0.02,,,0.70,WUHU21623XXSP,2013-06-25 13:12:00,
2013-06-25 09:17:00,66.4,63.9,29.79,North,0,0.0,0.0,92,0.02,,,0.70,WUHU21623XXSP,2013-06-25 13:17:00,
2013-06-25 09:22:00,66.4,63.9,29.79,NE,45,0.0,0.0,92,0.02,,,0.70,WUHU21623XXSP,2013-06-25 13:22:00,
2013-06-25 09:27:00,66.6,64.1,29.79,NE,45,0.0,0.0,92,0.02,,,0.70,WUHU21623XXSP,2013-06-25 13:27:00,
2013-06-25 09:28:00,66.6,64.1,29.79,NE,45,0.0,0.0,92,0.02,,,0.70,WUHU21623XXSP,2013-06-25 13:28:00,
2013-06-25 09:33:00,66.7,64.3,29.79,NE,45,0.0,0.0,92,0.02,,,0.70,WUHU21623XXSP,2013-06-25 13:33:00,
2013-06-25 09:38:00,66.9,64.3,29.79,NE,45,0.0,0.0,92,0.02,,,0.70,WUHU21623XXSP,2013-06-25 13:38:00,
2013-06-25 09:43:00,67.1,64.5,29.79,NW,315,0.0,0.0,92,0.00,,,0.70,WUHU21623XXSP,2013-06-25 13:43:00,
2013-06-25 09:48:00,67.3,64.8,29.79,SSE,157,1.6,1.6,92,0.00,,,0.70,WUHU21623XXSP,2013-06-25 13:48:00,
2013-06-25 09:53:00,67.5,65.0,29.79,SSW,212,1.0,3.1,92,0.00,,,0.70,WUHU21623XXSP,2013-06-25 13:53:00,
2013-06-25 09:58:00,67.6,65.2,29.79,SSE,150,2.3,5.1,92,0.00,,,0.70,WUHU21623XXSP,2013-06-25 13:58:00,
2013-06-25 10:03:00,67.8,65.4,29.79,SW,225,1.8,5.1,92,0.00,,,0.70,WUHU21623XXSP,2013-06-25 14:03:00,
2013-06-25 10:08:00,67.8,65.4,29.79,SSW,192,2.2,6.3,92,0.00,,,0.70,WUHU21623XXSP,2013-06-25 14:08:00,
2013-06-25 10:13:00,68.0,65.6,29.79,South,188,2.3,6.3,92,0.00,,,0.70,WUHU21623XXSP,2013-06-25 14:13:00,
2013-06-25 10:18:00,68.4,65.9,29.79,SSE,160,1.3,4.5,92,0.00,,,0.70,WUHU21623XXSP,2013-06-25 14:18:00,
2013-06-25 10:23:00,68.5,66.1,29.79,SSW,202,5.1,5.1,92,0.00,,,0.70,WUHU21623XXSP,2013-06-25 14:23:00,
2013-06-25 10:28:00,68.5,66.1,29.80,SSW,206,1.3,5.1,92,0.00,,,0.70,WUHU21623XXSP,2013-06-25 14:28:00,
2013-06-25 10:33:00,68.7,66.5,29.81,SSW,202,1.6,5.1,92,0.00,,,0.70,WUHU21623XXSP,2013-06-25 14:33:00,
2013-06-25 10:38:00,68.9,66.5,29.79,South,181,1.9,3.8,92,0.00,,,0.70,WUHU21623XXSP,2013-06-25 14:38:00,
2013-06-25 10:43:00,69.1,66.6,29.79,South,177,1.3,2.9,92,0.00,,,0.70,WUHU21623XXSP,2013-06-25 14:43:00,
2013-06-25 10:48:00,69.1,66.3,29.78,SW,216,1.1,3.4,91,0.00,,,0.70,WUHU21623XXSP,2013-06-25 14:48:00,
2013-06-25 10:53:00,69.3,66.5,29.77,SSW,202,2.9,4.7,91,0.00,,,0.70,WUHU21623XXSP,2013-06-25 14:53:00,
2013-06-25 10:58:00,69.6,66.9,29.77,SSE,147,1.6,5.1,91,0.00,,,0.70,WUHU21623XXSP,2013-06-25 14:58:00,
2013-06-25 11:03:00,70.0,67.2,29.77,SSW,202,2.5,6.5,91,0.00,,,0.70,WUHU21623XXSP,2013-06-25 15:03:00,
2013-06-25 11:08:00,70.2,67.1,29.77,South,188,2.5,7.4,90,0.00,,,0.70,WUHU21623XXSP,2013-06-25 15:08:00,
2013-06-25 11:13:00,70.5,67.5,29.77,South,172,1.5,7.4,90,0.00,,,0.70,WUHU21623XXSP,2013-06-25 15:13:00,
2013-06-25 11:18:00,70.9,67.5,29.77,SW,217,2.1,5.1,89,0.00,,,0.70,WUHU21623XXSP,2013-06-25 15:18:00,
2013-06-25 11:23:00,71.2,67.8,29.78,SE,135,2.2,5.1,89,0.00,,,0.70,WUHU21623XXSP,2013-06-25 15:23:00,
2013-06-25 11:28:00,71.6,68.2,29.78,WSW,247,6.0,13.6,89,0.00,,,0.70,WUHU21623XXSP,2013-06-25 15:28:00,
2013-06-25 11:33:00,72.0,68.2,29.79,SSW,210,2.7,13.6,88,0.00,,,0.70,WUHU21623XXSP,2013-06-25 15:33:00,
2013-06-25 11:38:00,72.1,68.4,29.79,SSW,196,2.4,8.5,88,0.00,,,0.70,WUHU21623XXSP,2013-06-25 15:38:00,
2013-06-25 11:43:00,72.3,68.6,29.79,South,171,2.1,8.5,88,0.00,,,0.70,WUHU21623XXSP,2013-06-25 15:43:00,
2013-06-25 11:48:00,72.5,68.8,29.80,South,180,2.9,6.0,88,0.00,,,0.70,WUHU21623XXSP,2013-06-25 15:48:00,
2013-06-25 11:53:00,73.0,69.3,29.80,South,179,2.2,5.4,88,0.00,,,0.70,WUHU21623XXSP,2013-06-25 15:53:00,
2013-06-25 11:58:00,73.2,69.1,29.80,South,185,1.2,6.3,87,0.00,,,0.70,WUHU21623XXSP,2013-06-25 15:58:00,
2013-06-25 12:03:00,73.8,69.7,29.80,South,173,1.5,8.5,87,0.00,,,0.70,WUHU21623XXSP,2013-06-25 16:03:00,
2013-06-25 12:08:00,74.1,70.0,29.80,SSE,158,1.6,9.2,87,0.00,,,0.70,WUHU21623XXSP,2013-06-25 16:08:00,
2013-06-25 12:13:00,74.5,70.4,29.80,SSW,200,2.9,9.2,87,0.00,,,0.70,WUHU21623XXSP,2013-06-25 16:13:00,
2013-06-25 12:18:00,75.0,70.9,29.81,SSW,192,1.4,8.5,87,0.00,,,0.70,WUHU21623XXSP,2013-06-25 16:18:00,
2013-06-25 12:23:00,75.4,70.9,29.80,SSW,201,2.3,8.3,86,0.00,,,0.70,WUHU21623XXSP,2013-06-25 16:23:00,
2013-06-25 12:28:00,75.7,71.1,29.80,SW,228,1.5,8.3,86,0.00,,,0.70,WUHU21623XXSP,2013-06-25 16:28:00,
2013-06-25 12:33:00,75.9,71.5,29.79,SSW,204,2.7,6.3,86,0.00,,,0.70,WUHU21623XXSP,2013-06-25 16:33:00,
2013-06-25 12:38:00,76.3,71.8,29.79,South,180,6.0,8.3,86,0.00,,,0.70,WUHU21623XXSP,2013-06-25 16:38:00,
2013-06-25 12:43:00,76.8,72.3,29.79,WSW,247,3.6,13.0,86,0.00,,,0.70,WUHU21623XXSP,2013-06-25 16:43:00,
2013-06-25 12:48:00,77.4,72.5,29.78,SW,220,3.0,13.0,85,0.00,,,0.70,WUHU21623XXSP,2013-06-25 16:48:00,
2013-06-25 12:53:00,77.5,72.7,29.77,NNW,337,0.0,8.5,85,0.00,,,0.70,WUHU21623XXSP,2013-06-25 16:53:00,
2013-06-25 12:58:00,77.7,72.5,29.76,SSW,202,0.0,9.8,84,0.00,,,0.70,WUHU21623XXSP,2013-06-25 16:58:00,
2013-06-25 13:03:00,77.9,72.7,29.76,SSW,201,1.8,9.8,84,0.00,,,0.70,WUHU21623XXSP,2013-06-25 17:03:00,
2013-06-25 13:08:00,77.7,72.1,29.75,South,175,3.0,5.4,83,0.00,,,0.70,WUHU21623XXSP,2013-06-25 17:08:00,
2013-06-25 13:13:00,77.9,72.3,29.75,West,270,0.8,5.4,83,0.00,,,0.70,WUHU21623XXSP,2013-06-25 17:13:00,
2013-06-25 13:18:00,77.9,72.3,29.74,SW,236,2.4,6.3,83,0.00,,,0.70,WUHU21623XXSP,2013-06-25 17:18:00,
2013-06-25 13:23:00,77.9,72.3,29.75,SSW,211,1.6,6.3,83,0.00,,,0.70,WUHU21623XXSP,2013-06-25 17:23:00,
2013-06-25 13:28:00,77.9,72.3,29.73,South,186,1.7,7.8,83,0.00,,,0.70,WUHU21623XXSP,2013-06-25 17:28:00,
2013-06-25 13:33:00,77.9,72.3,29.72,SSW,209,2.4,7.8,83,0.00,,,0.70,WUHU21623XXSP,2013-06-25 17:33:00,
2013-06-25 13:38:00,77.7,72.1,29.70,ESE,111,1.6,5.6,83,0.00,,,0.70,WUHU21623XXSP,2013-06-25 17:38:00,
2013-06-25 13:43:00,77.7,72.1,29.68,SSE,158,0.9,6.0,83,0.00,,,0.70,WUHU21623XXSP,2013-06-25 17:43:00,
2013-06-25 13:48:00,77.7,72.1,29.65,SSW,202,4.3,7.6,83,0.00,,,0.70,WUHU21623XXSP,2013-06-25 17:48:00,
2013-06-25 13:53:00,77.7,72.1,29.66,ENE,67,2.0,7.6,83,0.00,,,0.70,WUHU21623XXSP,2013-06-25 17:53:00,
2013-06-25 13:58:00,77.5,72.0,29.68,South,189,3.6,6.5,83,0.00,,,0.70,WUHU21623XXSP,2013-06-25 17:58:00,
2013-06-25 14:03:00,77.7,72.1,29.68,SSW,204,2.3,7.6,83,0.00,,,0.70,WUHU21623XXSP,2013-06-25 18:03:00,
2013-06-25 14:08:00,77.9,72.7,29.69,South,187,2.4,7.6,84,0.00,,,0.70,WUHU21623XXSP,2013-06-25 18:08:00,
2013-06-25 14:13:00,78.1,72.9,29.68,SSW,196,1.7,6.3,84,0.00,,,0.70,WUHU21623XXSP,2013-06-25 18:13:00,
2013-06-25 14:18:00,78.1,72.5,29.69,SW,225,1.6,3.6,83,0.00,,,0.70,WUHU21623XXSP,2013-06-25 18:18:00,
2013-06-25 14:23:00,78.4,72.9,29.69,SSW,196,2.1,5.1,83,0.00,,,0.70,WUHU21623XXSP,2013-06-25 18:23:00,
2013-06-25 14:28:00,78.4,73.2,29.69,SSE,163,1.9,6.3,84,0.00,,,0.70,WUHU21623XXSP,2013-06-25 18:28:00,
2013-06-25 14:33:00,78.4,73.2,29.70,South,176,2.1,7.8,84,0.00,,,0.70,WUHU21623XXSP,2013-06-25 18:33:00,
2013-06-25 14:38:00,78.6,73.4,29.70,SSW,202,3.6,7.8,84,0.00,,,0.70,WUHU21623XXSP,2013-06-25 18:38:00,
2013-06-25 14:43:00,78.6,73.4,29.71,SSW,195,2.9,9.4,84,0.00,,,0.70,WUHU21623XXSP,2013-06-25 18:43:00,
2013-06-25 14:48:00,78.6,73.4,29.71,SW,217,1.6,9.4,84,0.00,,,0.70,WUHU21623XXSP,2013-06-25 18:48:00,
2013-06-25 14:53:00,79.0,73.7,29.70,SW,236,2.3,5.8,84,0.00,,,0.70,WUHU21623XXSP,2013-06-25 18:53:00,
2013-06-25 14:58:00,79.2,73.6,29.70,SSW,202,8.1,11.4,83,0.00,,,0.70,WUHU21623XXSP,2013-06-25 18:58:00,
2013-06-25 15:03:00,79.3,73.4,29.71,SW,236,1.5,11.4,82,0.00,,,0.70,WUHU21623XXSP,2013-06-25 19:03:00,
2013-06-25 15:08:00,79.9,73.6,29.71,SSW,211,3.2,8.5,81,0.00,,,0.70,WUHU21623XXSP,2013-06-25 19:08:00,
2013-06-25 15:13:00,80.2,73.9,29.71,ENE,67,0.9,8.5,81,0.00,,,0.70,WUHU21623XXSP,2013-06-25 19:13:00,
2013-06-25 15:18:00,80.8,74.5,29.71,South,172,2.9,6.3,81,0.00,,,0.70,WUHU21623XXSP,2013-06-25 19:18:00,
2013-06-25 15:23:00,81.0,74.3,29.71,East,90,0.0,6.3,80,0.00,,,0.70,WUHU21623XXSP,2013-06-25 19:23:00,
2013-06-25 15:28:00,81.3,74.7,29.71,WNW,300,1.9,5.1,80,0.00,,,0.70,WUHU21623XXSP,2013-06-25 19:28:00,
2013-06-25 15:33:00,81.3,74.2,29.71,WSW,247,1.3,4.0,79,0.00,,,0.70,WUHU21623XXSP,2013-06-25 19:33:00,
2013-06-25 15:38:00,81.7,74.6,29.71,North,353,1.2,4.9,79,0.00,,,0.70,WUHU21623XXSP,2013-06-25 19:38:00,
2013-06-25 15:43:00,82.0,74.6,29.71,West,270,0.0,4.9,78,0.00,,,0.70,WUHU21623XXSP,2013-06-25 19:43:00,
2013-06-25 15:48:00,82.2,74.7,29.71,SSW,205,1.7,3.8,78,0.00,,,0.70,WUHU21623XXSP,2013-06-25 19:48:00,
2013-06-25 15:53:00,82.2,74.7,29.70,South,172,1.7,7.6,78,0.00,,,0.70,WUHU21623XXSP,2013-06-25 19:53:00,
2013-06-25 15:58:00,82.8,75.2,29.70,NW,315,3.6,7.8,78,0.00,,,0.70,WUHU21623XXSP,2013-06-25 19:58:00,
2013-06-25 16:05:00,82.9,75.0,29.70,SW,225,3.6,13.6,77,0.00,,,0.70,WUHU21623XXSP,2013-06-25 20:05:00,
2013-06-25 16:10:00,82.6,74.2,29.71,NNW,337,0.0,13.6,76,0.00,,,0.70,WUHU21623XXSP,2013-06-25 20:10:00,
2013-06-25 16:15:00,82.0,73.7,29.71,North,0,1.5,1.8,76,0.00,,,0.70,WUHU21623XXSP,2013-06-25 20:15:00,
2013-06-25 16:20:00,81.7,73.4,29.71,North,5,1.1,2.2,76,0.00,,,0.70,WUHU21623XXSP,2013-06-25 20:20:00,
2013-06-25 16:25:00,81.3,73.0,29.71,NNW,337,1.1,2.2,76,0.00,,,0.70,WUHU21623XXSP,2013-06-25 20:25:00,
2013-06-25 16:30:00,81.0,72.7,29.71,WNW,292,0.7,2.2,76,0.00,,,0.70,WUHU21623XXSP,2013-06-25 20:30:00,
2013-06-25 16:35:00,80.4,72.6,29.71,North,0,0.0,0.9,77,0.00,,,0.70,WUHU21623XXSP,2013-06-25 20:35:00,
2013-06-25 16:40:00,80.1,72.6,29.71,NW,315,1.1,1.1,78,0.00,,,0.70,WUHU21623XXSP,2013-06-25 20:40:00,
2013-06-25 16:45:00,79.9,72.4,29.71,North,0,0.0,1.1,78,0.00,,,0.70,WUHU21623XXSP,2013-06-25 20:45:00,
2013-06-25 16:50:00,79.7,72.2,29.70,North,0,0.0,0.0,78,0.00,,,0.70,WUHU21623XXSP,2013-06-25 20:50:00,
2013-06-25 16:55:00,79.7,72.6,29.70,North,0,1.0,1.3,79,0.00,,,0.70,WUHU21623XXSP,2013-06-25 20:55:00,
2013-06-25 17:00:00,79.7,72.6,29.71,NW,315,0.0,1.3,79,0.00,,,0.70,WUHU21623XXSP,2013-06-25 21:00:00,
2013-06-25 17:05:00,79.5,72.5,29.71,North,0,0.9,1.3,79,0.00,,,0.70,WUHU21623XXSP,2013-06-25 21:05:00,
2013-06-25 17:10:00,79.5,72.5,29.70,NE,45,0.0,1.3,79,0.00,,,0.70,WUHU21623XXSP,2013-06-25 21:10:00,
2013-06-25 17:15:00,79.5,72.5,29.70,NNW,337,0.0,1.8,79,0.00,,,0.70,WUHU21623XXSP,2013-06-25 21:15:00,
2013-06-25 17:20:00,79.5,72.5,29.69,WNW,292,0.7,1.8,79,0.00,,,0.70,WUHU21623XXSP,2013-06-25 21:20:00,
2013-06-25 17:25:00,79.9,72.8,29.68,East,90,0.0,1.8,79,0.00,,,0.70,WUHU21623XXSP,2013-06-25 21:25:00,
2013-06-25 17:30:00,79.9,72.8,29.68,WNW,292,1.0,1.8,79,0.00,,,0.70,WUHU21623XXSP,2013-06-25 21:30:00,
2013-06-25 17:35:00,79.9,72.4,29.69,WNW,292,0.0,1.3,78,0.00,,,0.70,WUHU21623XXSP,2013-06-25 21:35:00,
2013-06-25 17:40:00,80.2,72.8,29.68,West,270,0.0,1.3,78,0.00,,,0.70,WUHU21623XXSP,2013-06-25 21:40:00,
2013-06-25 17:45:00,80.2,72.8,29.68,NW,315,0.0,1.3,78,0.00,,,0.70,WUHU21623XXSP,2013-06-25 21:45:00,
2013-06-25 17:50:00,80.2,72.8,29.68,NNW,337,0.0,0.0,78,0.00,,,0.70,WUHU21623XXSP,2013-06-25 21:50:00,
2013-06-25 17:55:00,80.2,72.8,29.68,NNW,337,0.0,0.0,78,0.00,,,0.70,WUHU21623XXSP,2013-06-25 21:55:00,
2013-06-25 18:00:00,80.4,73.0,29.68,WNW,292,0.0,0.9,78,0.00,,,0.70,WUHU21623XXSP,2013-06-25 22:00:00,
2013-06-25 18:05:00,80.2,72.8,29.67,WNW,292,0.0,0.9,78,0.00,,,0.70,WUHU21623XXSP,2013-06-25 22:05:00,
2013-06-25 18:10:00,80.4,73.0,29.67,WNW,292,0.0,0.0,78,0.00,,,0.70,WUHU21623XXSP,2013-06-25 22:10:00,
2013-06-25 18:16:00,80.2,72.8,29.67,WNW,292,0.0,0.0,78,0.00,,,0.70,WUHU21623XXSP,2013-06-25 22:16:00,
2013-06-25 18:21:00,80.4,73.4,29.67,WNW,292,0.0,0.0,79,0.00,,,0.70,WUHU21623XXSP,2013-06-25 22:21:00,
2013-06-25 18:26:00,80.2,73.2,29.67,WNW,292,0.0,0.0,79,0.00,,,0.70,WUHU21623XXSP,2013-06-25 22:26:00,
2013-06-25 18:31:00,80.2,73.2,29.67,WNW,292,0.0,0.0,79,0.00,,,0.70,WUHU21623XXSP,2013-06-25 22:31:00,
2013-06-25 18:36:00,79.9,72.8,29.67,WNW,292,0.0,0.0,79,0.00,,,0.70,WUHU21623XXSP,2013-06-25 22:36:00,
2013-06-25 18:41:00,79.9,72.8,29.68,WNW,292,0.0,0.0,79,0.00,,,0.70,WUHU21623XXSP,2013-06-25 22:41:00,
2013-06-25 18:46:00,79.7,72.6,29.68,NW,315,0.0,0.7,79,0.00,,,0.70,WUHU21623XXSP,2013-06-25 22:46:00,
2013-06-25 18:52:00,79.5,72.5,29.68,NW,315,0.0,0.7,79,0.00,,,0.70,WUHU21623XXSP,2013-06-25 22:52:00,
2013-06-25 18:57:00,79.2,72.5,29.69,NW,315,0.0,0.0,80,0.00,,,0.70,WUHU21623XXSP,2013-06-25 22:57:00,
2013-06-25 19:02:00,78.6,72.0,29.68,NW,315,0.0,0.0,80,0.00,,,0.70,WUHU21623XXSP,2013-06-25 23:02:00,
2013-06-25 19:07:00,78.6,72.0,29.68,NW,315,0.0,0.0,80,0.00,,,0.70,WUHU21623XXSP,2013-06-25 23:07:00,
2013-06-25 19:12:00,78.3,72.0,29.68,NW,315,0.0,0.0,81,0.00,,,0.70,WUHU21623XXSP,2013-06-25 23:12:00,
2013-06-25 19:17:00,78.1,71.8,29.68,North,0,0.7,0.7,81,0.00,,,0.70,WUHU21623XXSP,2013-06-25 23:17:00,
2013-06-25 19:22:00,77.7,71.1,29.68,North,0,0.0,0.7,80,0.00,,,0.70,WUHU21623XXSP,2013-06-25 23:22:00,
2013-06-25 19:27:00,77.7,71.1,29.67,North,0,0.0,0.0,80,0.00,,,0.70,WUHU21623XXSP,2013-06-25 23:27:00,
2013-06-25 19:32:00,77.5,70.9,29.67,North,0,0.0,1.6,80,0.00,,,0.70,WUHU21623XXSP,2013-06-25 23:32:00,
2013-06-25 19:37:00,77.5,70.9,29.67,North,0,0.7,1.6,80,0.00,,,0.70,WUHU21623XXSP,2013-06-25 23:37:00,
2013-06-25 19:42:00,77.4,70.7,29.68,North,0,0.0,1.3,80,0.00,,,0.70,WUHU21623XXSP,2013-06-25 23:42:00,
2013-06-25 19:47:00,77.0,70.3,29.68,North,0,0.0,0.7,80,0.00,,,0.70,WUHU21623XXSP,2013-06-25 23:47:00,
2013-06-25 19:52:00,76.8,70.2,29.67,North,0,0.0,0.7,80,0.00,,,0.70,WUHU21623XXSP,2013-06-25 23:52:00,
2013-06-25 19:57:00,76.6,69.6,29.67,NNE,22,0.9,1.3,79,0.00,,,0.70,WUHU21623XXSP,2013-06-25 23:57:00,
2013-06-25 20:02:00,76.5,69.9,29.67,NNE,22,0.0,1.3,80,0.00,,,0.70,WUHU21623XXSP,2013-06-26 00:02:00,
2013-06-25 20:07:00,76.5,69.9,29.67,NNE,22,0.0,0.0,80,0.00,,,0.70,WUHU21623XXSP,2013-06-26 00:07:00,
2013-06-25 20:12:00,76.5,69.9,29.67,NNE,22,0.0,0.0,80,0.00,,,0.70,WUHU21623XXSP,2013-06-26 00:12:00,
2013-06-25 20:17:00,76.3,69.7,29.68,NNE,22,0.0,0.0,80,0.00,,,0.70,WUHU21623XXSP,2013-06-26 00:17:00,
2013-06-25 20:22:00,76.1,69.5,29.68,NNE,22,0.0,0.0,80,0.00,,,0.70,WUHU21623XXSP,2013-06-26 00:22:00,
2013-06-25 20:27:00,75.9,69.7,29.68,NNE,22,0.0,0.0,81,0.00,,,0.70,WUHU21623XXSP,2013-06-26 00:27:00,
2013-06-25 20:32:00,75.7,69.5,29.67,NNE,22,0.0,0.0,81,0.00,,,0.70,WUHU21623XXSP,2013-06-26 00:32:00,
2013-06-25 20:37:00,75.4,69.2,29.68,NNE,22,0.0,0.0,81,0.00,,,0.70,WUHU21623XXSP,2013-06-26 00:37:00,
2013-06-25 20:42:00,75.2,69.4,29.68,NNE,22,0.0,0.0,82,0.00,,,0.70,WUHU21623XXSP,2013-06-26 00:42:00,
2013-06-25 20:47:00,75.0,69.6,29.68,NNE,22,0.0,0.0,83,0.00,,,0.70,WUHU21623XXSP,2013-06-26 00:47:00,
2013-06-25 20:52:00,74.8,69.4,29.68,NNE,22,0.0,0.0,83,0.00,,,0.70,WUHU21623XXSP,2013-06-26 00:52:00,
2013-06-25 20:57:00,74.7,69.2,29.68,NNE,22,0.0,0.0,83,0.00,,,0.70,WUHU21623XXSP,2013-06-26 00:57:00,
2013-06-25 21:02:00,74.5,69.0,29.68,NNE,22,0.0,0.0,83,0.00,,,0.70,WUHU21623XXSP,2013-06-26 01:02:00,
2013-06-25 21:07:00,74.5,69.4,29.67,NNE,22,0.0,0.0,84,0.00,,,0.70,WUHU21623XXSP,2013-06-26 01:07:00,
2013-06-25 21:12:00,74.3,69.2,29.67,NNE,22,0.0,0.0,84,0.00,,,0.70,WUHU21623XXSP,2013-06-26 01:12:00,
2013-06-25 21:17:00,74.1,69.0,29.67,NNE,22,0.0,0.0,84,0.00,,,0.70,WUHU21623XXSP,2013-06-26 01:17:00,
2013-06-25 21:22:00,73.9,69.2,29.67,NNE,22,0.0,0.0,85,0.00,,,0.70,WUHU21623XXSP,2013-06-26 01:22:00,
2013-06-25 21:27:00,73.8,69.0,29.67,NNE,22,0.0,0.0,85,0.00,,,0.70,WUHU21623XXSP,2013-06-26 01:27:00,
2013-06-25 21:32:00,73.6,68.8,29.68,NNE,22,0.0,0.0,85,0.00,,,0.70,WUHU21623XXSP,2013-06-26 01:32:00,
2013-06-25 21:37:00,73.4,68.6,29.68,NNE,22,0.0,0.0,85,0.00,,,0.70,WUHU21623XXSP,2013-06-26 01:37:00,
2013-06-25 21:42:00,73.2,68.5,29.68,NNE,22,0.0,0.0,85,0.00,,,0.70,WUHU21623XXSP,2013-06-26 01:42:00,
2013-06-25 21:43:00,73.2,68.5,29.68,NNE,22,0.0,0.0,85,0.00,,,0.70,WUHU21623XXSP,2013-06-26 01:43:00,
2013-06-25 21:45:00,73.2,68.5,29.68,NNE,22,0.0,0.0,85,0.00,,,0.70,WUHU21623XXSP,2013-06-26 01:45:00,
2013-06-25 21:46:00,73.2,68.5,29.68,NNE,22,0.0,0.0,85,0.00,,,0.70,WUHU21623XXSP,2013-06-26 01:46:00,
2013-06-25 21:57:00,73.0,68.3,29.69,NNE,22,0.8,0.9,85,0.00,,,0.70,WUHU21623XXSP,2013-06-26 01:57:00,
2013-06-25 22:02:00,72.9,68.4,29.70,South,180,0.9,1.3,86,0.00,,,0.70,WUHU21623XXSP,2013-06-26 02:02:00,
2013-06-25 22:07:00,72.7,68.3,29.71,South,180,0.7,1.3,86,0.00,,,0.70,WUHU21623XXSP,2013-06-26 02:07:00,
2013-06-25 22:12:00,72.7,68.3,29.71,SSW,194,1.6,2.9,86,0.00,,,0.70,WUHU21623XXSP,2013-06-26 02:12:00,
2013-06-25 22:17:00,72.7,68.3,29.71,SSW,193,2.1,9.6,86,0.00,,,0.70,WUHU21623XXSP,2013-06-26 02:17:00,
2013-06-25 22:22:00,72.7,68.3,29.72,SW,228,3.4,9.6,86,0.00,,,0.70,WUHU21623XXSP,2013-06-26 02:22:00,
2013-06-25 22:27:00,72.7,68.3,29.71,SSW,202,2.9,9.6,86,0.00,,,0.70,WUHU21623XXSP,2013-06-26 02:27:00,
2013-06-25 22:32:00,72.7,67.9,29.71,SSW,202,1.3,6.7,85,0.00,,,0.70,WUHU21623XXSP,2013-06-26 02:32:00,
2013-06-25 22:37:00,72.9,68.1,29.70,SSW,192,0.9,5.8,85,0.00,,,0.70,WUHU21623XXSP,2013-06-26 02:37:00,
2013-06-25 22:42:00,72.9,67.7,29.70,SW,216,1.6,5.8,84,0.00,,,0.70,WUHU21623XXSP,2013-06-26 02:42:00,
2013-06-25 22:47:00,72.7,67.6,29.70,SW,225,0.0,5.8,84,0.00,,,0.70,WUHU21623XXSP,2013-06-26 02:47:00,
2013-06-25 22:52:00,72.7,67.6,29.70,SW,225,0.0,5.1,84,0.00,,,0.70,WUHU21623XXSP,2013-06-26 02:52:00,
2013-06-25 22:57:00,72.5,67.0,29.70,SSW,202,0.0,1.6,83,0.00,,,0.70,WUHU21623XXSP,2013-06-26 02:57:00,
2013-06-25 23:02:00,72.5,67.0,29.69,WSW,247,0.0,1.6,83,0.00,,,0.70,WUHU21623XXSP,2013-06-26 03:02:00,
2013-06-25 23:07:00,72.3,66.9,29.69,South,180,0.0,0.0,83,0.00,,,0.70,WUHU21623XXSP,2013-06-26 03:07:00,
2013-06-25 23:12:00,72.3,66.9,29.69,WNW,292,0.0,0.0,83,0.00,,,0.70,WUHU21623XXSP,2013-06-26 03:12:00,
2013-06-25 23:17:00,72.1,67.0,29.69,WNW,292,0.0,0.0,84,0.00,,,0.70,WUHU21623XXSP,2013-06-26 03:17:00,
2013-06-25 23:22:00,71.8,66.7,29.69,WNW,292,0.0,0.0,84,0.00,,,0.70,WUHU21623XXSP,2013-06-26 03:22:00,
2013-06-25 23:27:00,71.4,66.3,29.69,WNW,292,0.0,0.0,84,0.00,,,0.70,WUHU21623XXSP,2013-06-26 03:27:00,
2013-06-25 23:32:00,71.2,66.5,29.69,WNW,292,0.0,0.0,85,0.00,,,0.70,WUHU21623XXSP,2013-06-26 03:32:00,
2013-06-25 23:37:00,71.2,66.5,29.69,WNW,292,0.0,0.0,85,0.00,,,0.70,WUHU21623XXSP,2013-06-26 03:37:00,
2013-06-25 23:42:00,70.9,66.1,29.69,WNW,292,0.0,0.0,85,0.00,,,0.70,WUHU21623XXSP,2013-06-26 03:42:00,
2013-06-25 23:47:00,70.7,66.3,29.69,WNW,292,0.0,0.0,86,0.00,,,0.70,WUHU21623XXSP,2013-06-26 03:47:00,
2013-06-25 23:52:00,70.5,66.1,29.69,WNW,292,0.0,0.0,86,0.00,,,0.70,WUHU21623XXSP,2013-06-26 03:52:00,
2013-06-25 23:57:00,70.3,65.9,29.69,WNW,292,0.0,0.0,86,0.00,,,0.70,WUHU21623XXSP,2013-06-26 03:57:00,